Lynemouth, United Kingdom
Current Conditions -  °F | °C
As of 8:50 PM on Tuesday 27 Jan 2015 (Local Time) from EGNT Reporting Station
Broken Clouds Broken Clouds  
Wind Chill: 36°   Ceiling: 2000
Heat Index: 43°   Visibility: 6mi
Dew Point: 37°   Wind: 14mph
Humidity: 81%   Direction: 240°WSW
Pressure: 29.91"   Gusts: NA
Location:  55.21°N, 1.54°W
Report Text: EGNT 272050Z 24012KT 9999 BKN020 06/03 Q1013
Loading
Personal Weather Stations






























Interactive Weather Map New forecast layout! Learn more

10-Day Weather Forecast

Advertisements
Track Severe Weather on mobile